Time,TemperatureF,DewpointF,PressureIn,WindDirection,WindDirectionDegrees,WindSpeedMPH,WindSpeedGustMPH,Humidity,HourlyPrecipIn,Conditions,Clouds,dailyrainin,SoftwareType,DateUTC
2013-02-07 00:00:00,23.3,6.5,30.28,WNW,294,1.0,2.0,48,0.00,,,0.01,Wunderground v.1.15,2013-02-07 05:00:00,
2013-02-07 00:02:00,23.3,6.5,30.28,NW,317,1.0,2.0,48,0.00,,,0.01,Wunderground v.1.15,2013-02-07 05:02:00,
2013-02-07 00:04:00,23.2,6.8,30.28,NW,311,1.0,2.0,49,0.00,,,0.01,Wunderground v.1.15,2013-02-07 05:04:00,
2013-02-07 00:07:00,23.1,6.7,30.28,WNW,289,1.0,3.0,49,0.00,,,0.01,Wunderground v.1.15,2013-02-07 05:07:00,
2013-02-07 00:12:00,22.9,7.0,30.28,WNW,294,2.0,4.0,50,0.00,,,0.01,Wunderground v.1.15,2013-02-07 05:12:00,
2013-02-07 00:19:00,22.6,7.2,30.28,WNW,286,2.0,2.0,51,0.00,,,0.01,Wunderground v.1.15,2013-02-07 05:19:00,
2013-02-07 00:24:00,22.4,7.0,30.29,West,276,2.0,2.0,51,0.00,,,0.01,Wunderground v.1.15,2013-02-07 05:24:00,
2013-02-07 00:30:00,22.2,7.2,30.29,WNW,298,2.0,2.0,52,0.00,,,0.01,Wunderground v.1.15,2013-02-07 05:30:00,
2013-02-07 00:36:00,22.1,7.1,30.29,NW,308,2.0,3.0,52,0.00,,,0.01,Wunderground v.1.15,2013-02-07 05:36:00,
2013-02-07 00:42:00,22.1,6.7,30.29,West,271,2.0,2.0,51,0.00,,,0.01,Wunderground v.1.15,2013-02-07 05:42:00,
2013-02-07 00:49:00,22.1,7.1,30.29,West,265,1.0,1.0,52,0.00,,,0.01,Wunderground v.1.15,2013-02-07 05:49:00,
2013-02-07 00:54:00,21.8,9.3,30.29,West,265,0.0,1.0,58,0.00,,,0.00,Wunderground v.1.15,2013-02-07 05:54:00,
2013-02-07 01:00:00,21.3,8.8,30.29,West,264,0.0,0.0,58,0.00,,,0.00,Wunderground v.1.15,2013-02-07 06:00:00,
2013-02-07 01:06:00,20.9,8.4,30.29,West,265,0.0,0.0,58,0.00,,,0.00,Wunderground v.1.15,2013-02-07 06:06:00,
2013-02-07 01:12:00,20.6,8.1,30.29,West,265,0.0,0.0,58,0.00,,,0.00,Wunderground v.1.15,2013-02-07 06:12:00,
2013-02-07 01:17:00,20.3,8.2,30.30,West,265,0.0,1.0,59,0.00,,,0.00,Wunderground v.1.15,2013-02-07 06:17:00,
2013-02-07 01:24:00,19.9,7.9,30.30,WNW,292,0.0,1.0,59,0.00,,,0.00,Wunderground v.1.15,2013-02-07 06:24:00,
2013-02-07 01:30:00,19.7,7.3,30.31,WNW,292,0.0,0.0,58,0.00,,,0.00,Wunderground v.1.15,2013-02-07 06:30:00,
2013-02-07 01:36:00,19.7,7.7,30.31,WNW,292,0.0,0.0,59,0.00,,,0.00,Wunderground v.1.15,2013-02-07 06:36:00,
2013-02-07 01:41:00,19.4,7.8,30.31,WNW,292,0.0,0.0,60,0.00,,,0.00,Wunderground v.1.15,2013-02-07 06:41:00,
2013-02-07 01:47:00,19.3,8.8,30.32,WNW,292,0.0,0.0,63,0.00,,,0.00,Wunderground v.1.15,2013-02-07 06:47:00,
2013-02-07 01:52:00,19.1,9.3,30.32,WNW,292,0.0,0.0,65,0.00,,,0.00,Wunderground v.1.15,2013-02-07 06:52:00,
2013-02-07 01:59:00,18.9,9.1,30.32,WNW,291,0.0,0.0,65,0.00,,,0.00,Wunderground v.1.15,2013-02-07 06:59:00,
2013-02-07 02:04:00,18.7,8.9,30.32,WNW,291,0.0,0.0,65,0.00,,,0.00,Wunderground v.1.15,2013-02-07 07:04:00,
2013-02-07 02:10:00,18.6,8.4,30.31,WNW,291,0.0,0.0,64,0.00,,,0.00,Wunderground v.1.15,2013-02-07 07:10:00,
2013-02-07 02:16:00,18.4,8.6,30.32,WNW,291,1.0,1.0,65,0.00,,,0.00,Wunderground v.1.15,2013-02-07 07:16:00,
2013-02-07 02:22:00,18.1,8.6,30.31,WNW,291,1.0,1.0,66,0.00,,,0.00,Wunderground v.1.15,2013-02-07 07:22:00,
2013-02-07 02:27:00,17.7,8.6,30.32,WNW,291,1.0,2.0,67,0.00,,,0.00,Wunderground v.1.15,2013-02-07 07:27:00,
2013-02-07 02:34:00,17.3,8.2,30.32,WNW,294,1.0,2.0,67,0.00,,,0.00,Wunderground v.1.15,2013-02-07 07:34:00,
2013-02-07 02:40:00,17.1,8.0,30.32,WNW,294,1.0,1.0,67,0.00,,,0.00,Wunderground v.1.15,2013-02-07 07:40:00,
2013-02-07 02:45:00,17.1,8.7,30.32,WNW,294,1.0,1.0,69,0.00,,,0.00,Wunderground v.1.15,2013-02-07 07:45:00,
2013-02-07 02:51:00,17.0,8.6,30.33,WNW,294,0.0,0.0,69,0.00,,,0.00,Wunderground v.1.15,2013-02-07 07:51:00,
2013-02-07 02:56:00,17.0,8.3,30.33,WNW,294,0.0,0.0,68,0.00,,,0.00,Wunderground v.1.15,2013-02-07 07:56:00,
2013-02-07 03:01:00,16.9,8.5,30.34,WNW,294,0.0,0.0,69,0.00,,,0.00,Wunderground v.1.15,2013-02-07 08:01:00,
2013-02-07 03:06:00,16.8,8.4,30.34,WNW,294,0.0,0.0,69,0.00,,,0.00,Wunderground v.1.15,2013-02-07 08:06:00,
2013-02-07 03:12:00,16.7,8.6,30.34,WNW,294,0.0,0.0,70,0.00,,,0.00,Wunderground v.1.15,2013-02-07 08:12:00,
2013-02-07 03:17:00,16.5,8.4,30.34,WNW,294,0.0,1.0,70,0.00,,,0.00,Wunderground v.1.15,2013-02-07 08:17:00,
2013-02-07 03:22:00,16.3,8.5,30.34,WNW,294,1.0,1.0,71,0.00,,,0.00,Wunderground v.1.15,2013-02-07 08:22:00,
2013-02-07 03:29:00,16.0,7.6,30.35,WNW,294,1.0,1.0,69,0.00,,,0.00,Wunderground v.1.15,2013-02-07 08:29:00,
2013-02-07 03:34:00,15.9,7.5,30.35,WNW,294,0.0,1.0,69,0.00,,,0.00,Wunderground v.1.15,2013-02-07 08:34:00,
2013-02-07 03:40:00,15.8,8.1,30.35,WNW,294,0.0,1.0,71,0.00,,,0.00,Wunderground v.1.15,2013-02-07 08:40:00,
2013-02-07 03:46:00,15.7,8.6,30.36,WNW,300,1.0,1.0,73,0.00,,,0.00,Wunderground v.1.15,2013-02-07 08:46:00,
2013-02-07 03:52:00,15.4,8.3,30.36,NW,312,1.0,2.0,73,0.00,,,0.00,Wunderground v.1.15,2013-02-07 08:52:00,
2013-02-07 03:59:00,15.3,8.2,30.36,NW,312,1.0,1.0,73,0.00,,,0.00,Wunderground v.1.15,2013-02-07 08:59:00,
2013-02-07 04:04:00,15.3,8.2,30.37,NW,312,1.0,1.0,73,0.00,,,0.00,Wunderground v.1.15,2013-02-07 09:04:00,
2013-02-07 04:10:00,15.4,8.3,30.37,NW,312,0.0,0.0,73,0.00,,,0.00,Wunderground v.1.15,2013-02-07 09:10:00,
2013-02-07 04:15:00,15.6,8.2,30.37,NW,311,0.0,1.0,72,0.00,,,0.00,Wunderground v.1.15,2013-02-07 09:15:00,
2013-02-07 04:20:00,15.6,8.5,30.37,NW,311,0.0,1.0,73,0.00,,,0.00,Wunderground v.1.15,2013-02-07 09:20:00,
2013-02-07 04:26:00,15.4,8.6,30.37,NW,312,1.0,1.0,74,0.00,,,0.00,Wunderground v.1.15,2013-02-07 09:26:00,
2013-02-07 04:31:00,15.2,8.1,30.37,NW,311,1.0,1.0,73,0.00,,,0.00,Wunderground v.1.15,2013-02-07 09:31:00,
2013-02-07 04:37:00,15.0,7.9,30.37,NW,312,1.0,1.0,73,0.00,,,0.00,Wunderground v.1.15,2013-02-07 09:37:00,
2013-02-07 04:42:00,14.9,8.1,30.37,NW,311,1.0,1.0,74,0.00,,,0.00,Wunderground v.1.15,2013-02-07 09:42:00,
2013-02-07 04:49:00,14.9,7.8,30.37,NW,311,1.0,1.0,73,0.00,,,0.00,Wunderground v.1.15,2013-02-07 09:49:00,
2013-02-07 04:55:00,14.8,7.7,30.37,NW,312,1.0,1.0,73,0.00,,,0.00,Wunderground v.1.15,2013-02-07 09:55:00,
2013-02-07 05:01:00,14.7,7.6,30.38,NW,311,1.0,1.0,73,0.00,,,0.00,Wunderground v.1.15,2013-02-07 10:01:00,
2013-02-07 05:06:00,14.7,7.9,30.38,NW,312,1.0,1.0,74,0.00,,,0.00,Wunderground v.1.15,2013-02-07 10:06:00,
2013-02-07 05:11:00,14.7,7.9,30.38,NW,312,1.0,1.0,74,0.00,,,0.00,Wunderground v.1.15,2013-02-07 10:11:00,
2013-02-07 05:17:00,14.7,7.9,30.38,NW,312,1.0,1.0,74,0.00,,,0.00,Wunderground v.1.15,2013-02-07 10:17:00,
2013-02-07 05:22:00,14.7,7.9,30.38,NW,312,1.0,1.0,74,0.00,,,0.00,Wunderground v.1.15,2013-02-07 10:22:00,
2013-02-07 05:29:00,14.7,8.2,30.38,NW,312,1.0,1.0,75,0.00,,,0.00,Wunderground v.1.15,2013-02-07 10:29:00,
2013-02-07 05:34:00,14.6,8.1,30.38,NW,312,1.0,1.0,75,0.00,,,0.00,Wunderground v.1.15,2013-02-07 10:34:00,
2013-02-07 05:39:00,14.4,7.9,30.38,WNW,295,1.0,2.0,75,0.00,,,0.00,Wunderground v.1.15,2013-02-07 10:39:00,
2013-02-07 05:45:00,14.3,7.8,30.38,WNW,296,1.0,2.0,75,0.00,,,0.00,Wunderground v.1.15,2013-02-07 10:45:00,
2013-02-07 05:50:00,14.3,8.1,30.38,WNW,296,1.0,1.0,76,0.00,,,0.00,Wunderground v.1.15,2013-02-07 10:50:00,
2013-02-07 05:55:00,14.1,7.9,30.38,WNW,296,1.0,1.0,76,0.00,,,0.00,Wunderground v.1.15,2013-02-07 10:55:00,
2013-02-07 06:01:00,14.1,7.6,30.39,WNW,295,0.0,0.0,75,0.00,,,0.00,Wunderground v.1.15,2013-02-07 11:01:00,
2013-02-07 06:07:00,14.1,7.6,30.39,WNW,295,0.0,0.0,75,0.00,,,0.00,Wunderground v.1.15,2013-02-07 11:07:00,
2013-02-07 06:12:00,14.0,7.5,30.39,WNW,296,0.0,1.0,75,0.00,,,0.00,Wunderground v.1.15,2013-02-07 11:12:00,
2013-02-07 06:19:00,13.9,7.4,30.40,WNW,296,1.0,1.0,75,0.00,,,0.00,Wunderground v.1.15,2013-02-07 11:19:00,
2013-02-07 06:25:00,13.8,7.3,30.40,WNW,296,1.0,2.0,75,0.00,,,0.00,Wunderground v.1.15,2013-02-07 11:25:00,
2013-02-07 06:31:00,13.7,7.5,30.41,WNW,296,1.0,1.0,76,0.00,,,0.00,Wunderground v.1.15,2013-02-07 11:31:00,
2013-02-07 06:37:00,13.7,7.5,30.41,WNW,295,1.0,1.0,76,0.00,,,0.00,Wunderground v.1.15,2013-02-07 11:37:00,
2013-02-07 06:44:00,13.6,7.1,30.42,WNW,295,1.0,1.0,75,0.00,,,0.00,Wunderground v.1.15,2013-02-07 11:44:00,
2013-02-07 06:49:00,13.6,7.4,30.43,WNW,295,1.0,1.0,76,0.00,,,0.00,Wunderground v.1.15,2013-02-07 11:49:00,
2013-02-07 06:54:00,13.5,7.3,30.43,WNW,295,1.0,1.0,76,0.00,,,0.00,Wunderground v.1.15,2013-02-07 11:54:00,
2013-02-07 06:59:00,13.5,7.3,30.43,WNW,296,0.0,0.0,76,0.00,,,0.00,Wunderground v.1.15,2013-02-07 11:59:00,
2013-02-07 07:04:00,13.5,7.6,30.43,WNW,296,0.0,0.0,77,0.00,,,0.00,Wunderground v.1.15,2013-02-07 12:04:00,
2013-02-07 07:10:00,13.5,7.6,30.43,WNW,295,0.0,0.0,77,0.00,,,0.00,Wunderground v.1.15,2013-02-07 12:10:00,
2013-02-07 07:15:00,13.6,7.7,30.43,WNW,296,0.0,0.0,77,0.00,,,0.00,Wunderground v.1.15,2013-02-07 12:15:00,
2013-02-07 07:20:00,13.7,7.8,30.43,WNW,296,0.0,0.0,77,0.00,,,0.00,Wunderground v.1.15,2013-02-07 12:20:00,
2013-02-07 07:26:00,13.9,8.0,30.43,WNW,296,0.0,0.0,77,0.00,,,0.00,Wunderground v.1.15,2013-02-07 12:26:00,
2013-02-07 07:32:00,14.2,8.3,30.45,WNW,296,0.0,1.0,77,0.00,,,0.00,Wunderground v.1.15,2013-02-07 12:32:00,
2013-02-07 07:37:00,14.7,8.5,30.45,NNW,334,1.0,2.0,76,0.00,,,0.00,Wunderground v.1.15,2013-02-07 12:37:00,
2013-02-07 07:44:00,15.8,8.4,30.46,NW,305,1.0,2.0,72,0.00,,,0.00,Wunderground v.1.15,2013-02-07 12:44:00,
2013-02-07 07:50:00,16.4,8.3,30.46,NW,304,1.0,1.0,70,0.00,,,0.00,Wunderground v.1.15,2013-02-07 12:50:00,
2013-02-07 07:55:00,16.8,8.7,30.47,WNW,284,1.0,1.0,70,0.00,,,0.00,Wunderground v.1.15,2013-02-07 12:55:00,
2013-02-07 08:00:00,17.5,8.1,30.47,North,349,1.0,2.0,66,0.00,,,0.00,Wunderground v.1.15,2013-02-07 13:00:00,
2013-02-07 08:06:00,18.1,8.6,30.48,NW,313,1.0,2.0,66,0.00,,,0.00,Wunderground v.1.15,2013-02-07 13:06:00,
2013-02-07 08:11:00,18.5,8.3,30.47,WNW,288,1.0,3.0,64,0.00,,,0.00,Wunderground v.1.15,2013-02-07 13:11:00,
2013-02-07 08:16:00,18.9,8.4,30.48,NNW,337,2.0,4.0,63,0.00,,,0.00,Wunderground v.1.15,2013-02-07 13:16:00,
2013-02-07 08:22:00,19.1,8.6,30.47,NNW,334,3.0,4.0,63,0.00,,,0.00,Wunderground v.1.15,2013-02-07 13:22:00,
2013-02-07 08:27:00,19.2,8.7,30.47,WNW,293,2.0,4.0,63,0.00,,,0.00,Wunderground v.1.15,2013-02-07 13:27:00,
2013-02-07 08:32:00,19.4,8.5,30.48,North,355,1.0,2.0,62,0.00,,,0.00,Wunderground v.1.15,2013-02-07 13:32:00,
2013-02-07 08:39:00,19.7,8.4,30.48,NNW,329,1.0,1.0,61,0.00,,,0.00,Wunderground v.1.15,2013-02-07 13:39:00,
2013-02-07 08:45:00,19.8,8.5,30.48,NW,321,1.0,2.0,61,0.00,,,0.00,Wunderground v.1.15,2013-02-07 13:45:00,
2013-02-07 08:51:00,20.0,8.3,30.48,NNW,346,1.0,4.0,60,0.00,,,0.00,Wunderground v.1.15,2013-02-07 13:51:00,
2013-02-07 08:56:00,20.3,7.9,30.48,NW,313,2.0,4.0,58,0.00,,,0.00,Wunderground v.1.15,2013-02-07 13:56:00,
2013-02-07 09:01:00,20.3,7.5,30.48,WNW,302,2.0,3.0,57,0.00,,,0.00,Wunderground v.1.15,2013-02-07 14:01:00,
2013-02-07 09:07:00,20.4,7.2,30.48,NW,317,3.0,3.0,56,0.00,,,0.00,Wunderground v.1.15,2013-02-07 14:07:00,
2013-02-07 09:12:00,20.3,7.1,30.48,NNW,332,3.0,4.0,56,0.00,,,0.00,Wunderground v.1.15,2013-02-07 14:12:00,
2013-02-07 09:17:00,20.6,8.1,30.49,WNW,290,2.0,4.0,58,0.00,,,0.00,Wunderground v.1.15,2013-02-07 14:17:00,
2013-02-07 09:24:00,20.6,7.0,30.49,North,349,2.0,4.0,55,0.00,,,0.00,Wunderground v.1.15,2013-02-07 14:24:00,
2013-02-07 09:29:00,20.4,6.8,30.49,WNW,287,2.0,2.0,55,0.00,,,0.00,Wunderground v.1.15,2013-02-07 14:29:00,
2013-02-07 09:34:00,20.5,7.3,30.49,NNE,15,1.0,2.0,56,0.00,,,0.00,Wunderground v.1.15,2013-02-07 14:34:00,
2013-02-07 09:40:00,20.7,7.5,30.50,NNE,24,1.0,1.0,56,0.00,,,0.00,Wunderground v.1.15,2013-02-07 14:40:00,
2013-02-07 09:46:00,21.3,7.6,30.50,NNE,22,1.0,3.0,55,0.00,,,0.00,Wunderground v.1.15,2013-02-07 14:46:00,
2013-02-07 09:52:00,21.7,7.2,30.50,NNW,339,1.0,3.0,53,0.00,,,0.00,Wunderground v.1.15,2013-02-07 14:52:00,
2013-02-07 09:57:00,21.8,6.8,30.50,NW,309,2.0,3.0,52,0.00,,,0.00,Wunderground v.1.15,2013-02-07 14:57:00,
2013-02-07 10:04:00,22.5,7.5,30.50,NNW,337,2.0,2.0,52,0.00,,,0.00,Wunderground v.1.15,2013-02-07 15:04:00,
2013-02-07 10:10:00,23.0,8.0,30.50,WSW,257,2.0,2.0,52,0.00,,,0.00,Wunderground v.1.15,2013-02-07 15:10:00,
2013-02-07 10:15:00,23.9,7.9,30.50,NNW,331,1.0,3.0,50,0.00,,,0.00,Wunderground v.1.15,2013-02-07 15:15:00,
2013-02-07 10:21:00,24.4,7.5,30.51,NNW,329,2.0,5.0,48,0.00,,,0.00,Wunderground v.1.15,2013-02-07 15:21:00,
2013-02-07 10:27:00,23.9,6.6,30.51,NW,325,3.0,5.0,47,0.00,,,0.00,Wunderground v.1.15,2013-02-07 15:27:00,
2013-02-07 10:34:00,23.4,6.6,30.50,NNE,17,3.0,3.0,48,0.00,,,0.00,Wunderground v.1.15,2013-02-07 15:34:00,
2013-02-07 10:40:00,23.5,6.7,30.50,NNW,336,2.0,2.0,48,0.00,,,0.00,Wunderground v.1.15,2013-02-07 15:40:00,
2013-02-07 10:45:00,23.5,7.1,30.50,NNE,14,2.0,2.0,49,0.00,,,0.00,Wunderground v.1.15,2013-02-07 15:45:00,
2013-02-07 10:52:00,23.8,6.0,30.50,WNW,291,2.0,6.0,46,0.00,,,0.00,Wunderground v.1.15,2013-02-07 15:52:00,
2013-02-07 10:57:00,24.1,5.8,30.50,NW,323,2.0,6.0,45,0.00,,,0.00,Wunderground v.1.15,2013-02-07 15:57:00,
2013-02-07 11:02:00,24.5,6.2,30.50,NNE,24,2.0,3.0,45,0.00,,,0.00,Wunderground v.1.15,2013-02-07 16:02:00,
2013-02-07 11:09:00,25.3,6.4,30.50,North,349,2.0,4.0,44,0.00,,,0.00,Wunderground v.1.15,2013-02-07 16:09:00,
2013-02-07 11:14:00,25.7,6.8,30.50,West,277,3.0,4.0,44,0.00,,,0.00,Wunderground v.1.15,2013-02-07 16:14:00,
2013-02-07 11:20:00,25.9,6.4,30.50,West,281,3.0,3.0,43,0.00,,,0.00,Wunderground v.1.15,2013-02-07 16:20:00,
2013-02-07 11:25:00,25.7,6.3,30.49,NNW,329,3.0,3.0,43,0.00,,,0.00,Wunderground v.1.15,2013-02-07 16:25:00,
2013-02-07 11:30:00,25.5,7.1,30.49,WNW,294,2.0,2.0,45,0.00,,,0.00,Wunderground v.1.15,2013-02-07 16:30:00,
2013-02-07 11:36:00,26.2,6.7,30.49,NNW,335,2.0,4.0,43,0.00,,,0.00,Wunderground v.1.15,2013-02-07 16:36:00,
2013-02-07 11:41:00,26.3,6.3,30.49,WNW,300,3.0,4.0,42,0.00,,,0.00,Wunderground v.1.15,2013-02-07 16:41:00,
2013-02-07 11:47:00,26.6,6.6,30.49,North,360,3.0,4.0,42,0.00,,,0.00,Wunderground v.1.15,2013-02-07 16:47:00,
2013-02-07 11:52:00,26.8,6.7,30.49,WNW,296,3.0,7.0,42,0.00,,,0.00,Wunderground v.1.15,2013-02-07 16:52:00,
2013-02-07 11:59:00,27.2,6.6,30.48,NW,321,4.0,4.0,41,0.00,,,0.00,Wunderground v.1.15,2013-02-07 16:59:00,
2013-02-07 12:05:00,27.4,6.8,30.48,West,273,3.0,4.0,41,0.00,,,0.00,Wunderground v.1.15,2013-02-07 17:05:00,
2013-02-07 12:10:00,27.7,7.6,30.48,NNW,348,3.0,4.0,42,0.00,,,0.00,Wunderground v.1.15,2013-02-07 17:10:00,
2013-02-07 12:16:00,27.7,7.0,30.47,West,274,3.0,7.0,41,0.00,,,0.00,Wunderground v.1.15,2013-02-07 17:16:00,
2013-02-07 12:22:00,28.4,7.7,30.47,West,275,3.0,4.0,41,0.00,,,0.00,Wunderground v.1.15,2013-02-07 17:22:00,
2013-02-07 12:29:00,28.2,7.5,30.47,NW,325,3.0,3.0,41,0.00,,,0.00,Wunderground v.1.15,2013-02-07 17:29:00,
2013-02-07 12:35:00,28.7,7.9,30.47,NE,46,3.0,8.0,41,0.00,,,0.00,Wunderground v.1.15,2013-02-07 17:35:00,
2013-02-07 12:40:00,28.5,7.2,30.47,NE,45,4.0,4.0,40,0.00,,,0.00,Wunderground v.1.15,2013-02-07 17:40:00,
2013-02-07 12:45:00,28.4,7.1,30.46,NE,34,3.0,4.0,40,0.00,,,0.00,Wunderground v.1.15,2013-02-07 17:45:00,
2013-02-07 12:51:00,28.6,7.8,30.46,NE,53,2.0,2.0,41,0.00,,,0.00,Wunderground v.1.15,2013-02-07 17:51:00,
2013-02-07 12:56:00,29.0,8.2,30.47,NNW,338,1.0,4.0,41,0.00,,,0.00,Wunderground v.1.15,2013-02-07 17:56:00,
2013-02-07 13:02:00,29.1,7.7,30.46,NE,45,1.0,2.0,40,0.00,,,0.00,Wunderground v.1.15,2013-02-07 18:02:00,
2013-02-07 13:09:00,29.7,7.7,30.46,NW,316,1.0,1.0,39,0.00,,,0.00,Wunderground v.1.15,2013-02-07 18:09:00,
2013-02-07 13:14:00,29.5,7.5,30.45,NE,38,2.0,5.0,39,0.00,,,0.00,Wunderground v.1.15,2013-02-07 18:14:00,
2013-02-07 13:20:00,28.9,7.6,30.45,ESE,111,2.0,2.0,40,0.00,,,0.00,Wunderground v.1.15,2013-02-07 18:20:00,
2013-02-07 13:25:00,29.1,7.7,30.45,SSW,200,2.0,2.0,40,0.00,,,0.00,Wunderground v.1.15,2013-02-07 18:25:00,
2013-02-07 13:31:00,29.6,8.7,30.45,North,11,2.0,4.0,41,0.00,,,0.00,Wunderground v.1.15,2013-02-07 18:31:00,
2013-02-07 13:36:00,30.0,8.0,30.45,WNW,286,2.0,4.0,39,0.00,,,0.00,Wunderground v.1.15,2013-02-07 18:36:00,
2013-02-07 13:41:00,30.3,8.3,30.45,NNE,19,2.0,4.0,39,0.00,,,0.00,Wunderground v.1.15,2013-02-07 18:41:00,
2013-02-07 13:47:00,30.3,8.3,30.45,North,5,2.0,4.0,39,0.00,,,0.00,Wunderground v.1.15,2013-02-07 18:47:00,
2013-02-07 13:52:00,30.3,7.7,30.44,NNE,26,2.0,4.0,38,0.00,,,0.00,Wunderground v.1.15,2013-02-07 18:52:00,
2013-02-07 13:59:00,29.7,7.7,30.44,NE,49,2.0,2.0,39,0.00,,,0.00,Wunderground v.1.15,2013-02-07 18:59:00,
2013-02-07 14:04:00,29.3,8.5,30.44,ESE,111,2.0,3.0,41,0.00,,,0.00,Wunderground v.1.15,2013-02-07 19:04:00,
2013-02-07 14:10:00,29.7,7.7,30.44,East,87,2.0,3.0,39,0.00,,,0.00,Wunderground v.1.15,2013-02-07 19:10:00,
2013-02-07 14:16:00,30.2,8.2,30.45,WSW,243,1.0,3.0,39,0.00,,,0.00,Wunderground v.1.15,2013-02-07 19:16:00,
2013-02-07 14:22:00,31.5,8.8,30.44,ENE,61,1.0,1.0,38,0.00,,,0.00,Wunderground v.1.15,2013-02-07 19:22:00,
2013-02-07 14:29:00,30.8,8.7,30.44,ENE,74,1.0,2.0,39,0.00,,,0.00,Wunderground v.1.15,2013-02-07 19:29:00,
2013-02-07 14:35:00,30.1,7.5,30.44,ESE,111,1.0,3.0,38,0.00,,,0.00,Wunderground v.1.15,2013-02-07 19:35:00,
2013-02-07 14:41:00,29.8,7.8,30.44,ENE,72,1.0,1.0,39,0.00,,,0.00,Wunderground v.1.15,2013-02-07 19:41:00,
2013-02-07 14:46:00,29.8,7.2,30.44,East,83,1.0,2.0,38,0.00,,,0.00,Wunderground v.1.15,2013-02-07 19:46:00,
2013-02-07 14:52:00,29.9,7.9,30.44,East,99,2.0,4.0,39,0.00,,,0.00,Wunderground v.1.15,2013-02-07 19:52:00,
2013-02-07 14:57:00,29.9,7.9,30.44,East,90,2.0,4.0,39,0.00,,,0.00,Wunderground v.1.15,2013-02-07 19:57:00,
2013-02-07 15:02:00,29.9,7.9,30.44,SE,146,1.0,3.0,39,0.00,,,0.00,Wunderground v.1.15,2013-02-07 20:02:00,
2013-02-07 15:07:00,30.2,8.2,30.44,South,172,1.0,3.0,39,0.00,,,0.00,Wunderground v.1.15,2013-02-07 20:07:00,
2013-02-07 15:14:00,30.0,8.0,30.45,ENE,61,1.0,3.0,39,0.00,,,0.00,Wunderground v.1.15,2013-02-07 20:14:00,
2013-02-07 15:19:00,29.5,7.5,30.44,SSW,202,1.0,2.0,39,0.00,,,0.00,Wunderground v.1.15,2013-02-07 20:19:00,
2013-02-07 15:24:00,29.3,7.4,30.45,ENE,70,1.0,2.0,39,0.00,,,0.00,Wunderground v.1.15,2013-02-07 20:24:00,
2013-02-07 15:30:00,29.2,7.3,30.44,ENE,69,0.0,1.0,39,0.00,,,0.00,Wunderground v.1.15,2013-02-07 20:30:00,
2013-02-07 15:35:00,29.0,7.1,30.45,NE,34,1.0,1.0,39,0.00,,,0.00,Wunderground v.1.15,2013-02-07 20:35:00,
2013-02-07 15:41:00,28.9,7.6,30.45,NE,35,0.0,1.0,40,0.00,,,0.00,Wunderground v.1.15,2013-02-07 20:41:00,
2013-02-07 15:47:00,28.9,7.6,30.44,NE,34,0.0,1.0,40,0.00,,,0.00,Wunderground v.1.15,2013-02-07 20:47:00,
2013-02-07 15:52:00,28.8,6.9,30.45,NE,50,0.0,1.0,39,0.00,,,0.00,Wunderground v.1.15,2013-02-07 20:52:00,
2013-02-07 15:59:00,28.6,7.3,30.45,NE,38,1.0,1.0,40,0.00,,,0.00,Wunderground v.1.15,2013-02-07 20:59:00,
2013-02-07 16:04:00,28.5,6.6,30.45,ENE,75,1.0,1.0,39,0.00,,,0.00,Wunderground v.1.15,2013-02-07 21:04:00,
2013-02-07 16:10:00,28.5,7.2,30.45,ENE,76,1.0,1.0,40,0.00,,,0.00,Wunderground v.1.15,2013-02-07 21:10:00,
2013-02-07 16:16:00,28.5,7.2,30.44,ENE,75,0.0,2.0,40,0.00,,,0.00,Wunderground v.1.15,2013-02-07 21:16:00,
2013-02-07 16:22:00,28.6,7.8,30.45,ENE,76,0.0,1.0,41,0.00,,,0.00,Wunderground v.1.15,2013-02-07 21:22:00,
2013-02-07 16:27:00,28.5,7.8,30.44,NE,47,1.0,2.0,41,0.00,,,0.00,Wunderground v.1.15,2013-02-07 21:27:00,
2013-02-07 16:32:00,28.4,8.2,30.44,East,84,1.0,1.0,42,0.00,,,0.00,Wunderground v.1.15,2013-02-07 21:32:00,
2013-02-07 16:39:00,28.2,8.5,30.44,East,101,1.0,1.0,43,0.00,,,0.00,Wunderground v.1.15,2013-02-07 21:39:00,
2013-02-07 16:45:00,28.1,7.4,30.44,SE,128,0.0,1.0,41,0.00,,,0.00,Wunderground v.1.15,2013-02-07 21:45:00,
2013-02-07 16:50:00,28.0,7.8,30.44,East,87,0.0,0.0,42,0.00,,,0.00,Wunderground v.1.15,2013-02-07 21:50:00,
2013-02-07 16:56:00,27.8,7.6,30.45,East,87,0.0,1.0,42,0.00,,,0.00,Wunderground v.1.15,2013-02-07 21:56:00,
2013-02-07 17:01:00,27.7,8.1,30.45,East,87,0.0,0.0,43,0.00,,,0.00,Wunderground v.1.15,2013-02-07 22:01:00,
2013-02-07 17:06:00,27.5,7.9,30.45,East,87,0.0,2.0,43,0.00,,,0.00,Wunderground v.1.15,2013-02-07 22:06:00,
2013-02-07 17:12:00,27.4,7.8,30.45,ESE,107,1.0,2.0,43,0.00,,,0.00,Wunderground v.1.15,2013-02-07 22:12:00,
2013-02-07 17:17:00,27.2,7.6,30.45,East,93,1.0,3.0,43,0.00,,,0.00,Wunderground v.1.15,2013-02-07 22:17:00,
2013-02-07 17:24:00,27.1,7.5,30.45,East,93,1.0,1.0,43,0.00,,,0.00,Wunderground v.1.15,2013-02-07 22:24:00,
2013-02-07 17:29:00,27.0,8.0,30.45,East,82,1.0,1.0,44,0.00,,,0.00,Wunderground v.1.15,2013-02-07 22:29:00,
2013-02-07 17:34:00,26.9,7.9,30.46,ESE,110,1.0,2.0,44,0.00,,,0.00,Wunderground v.1.15,2013-02-07 22:34:00,
2013-02-07 17:39:00,26.8,7.3,30.46,ENE,59,1.0,1.0,43,0.00,,,0.00,Wunderground v.1.15,2013-02-07 22:39:00,
2013-02-07 17:45:00,26.7,7.2,30.46,East,99,1.0,1.0,43,0.00,,,0.00,Wunderground v.1.15,2013-02-07 22:45:00,
2013-02-07 17:51:00,26.7,7.7,30.46,ESE,110,0.0,1.0,44,0.00,,,0.00,Wunderground v.1.15,2013-02-07 22:51:00,
2013-02-07 17:56:00,26.7,7.7,30.46,East,92,1.0,2.0,44,0.00,,,0.00,Wunderground v.1.15,2013-02-07 22:56:00,
2013-02-07 18:02:00,26.7,7.7,30.46,East,94,1.0,5.0,44,0.00,,,0.00,Wunderground v.1.15,2013-02-07 23:02:00,
2013-02-07 18:07:00,26.6,7.1,30.46,East,91,2.0,5.0,43,0.00,,,0.00,Wunderground v.1.15,2013-02-07 23:07:00,
2013-02-07 18:12:00,26.6,7.6,30.46,East,92,2.0,2.0,44,0.00,,,0.00,Wunderground v.1.15,2013-02-07 23:12:00,
2013-02-07 18:19:00,26.5,6.5,30.46,East,89,2.0,5.0,42,0.00,,,0.00,Wunderground v.1.15,2013-02-07 23:19:00,
2013-02-07 18:24:00,26.5,7.0,30.46,ESE,102,2.0,5.0,43,0.00,,,0.00,Wunderground v.1.15,2013-02-07 23:24:00,
2013-02-07 18:29:00,26.4,6.9,30.47,ESE,105,2.0,2.0,43,0.00,,,0.00,Wunderground v.1.15,2013-02-07 23:29:00,
2013-02-07 18:34:00,26.3,6.8,30.47,ENE,61,2.0,3.0,43,0.00,,,0.00,Wunderground v.1.15,2013-02-07 23:34:00,
2013-02-07 18:40:00,26.2,6.7,30.47,ESE,108,2.0,2.0,43,0.00,,,0.00,Wunderground v.1.15,2013-02-07 23:40:00,
2013-02-07 18:45:00,26.1,6.6,30.48,ESE,109,2.0,2.0,43,0.00,,,0.00,Wunderground v.1.15,2013-02-07 23:45:00,
2013-02-07 18:50:00,26.0,7.5,30.48,East,99,2.0,5.0,45,0.00,,,0.00,Wunderground v.1.15,2013-02-07 23:50:00,
2013-02-07 18:56:00,25.7,6.8,30.48,East,99,2.0,5.0,44,0.00,,,0.00,Wunderground v.1.15,2013-02-07 23:56:00,
2013-02-07 19:01:00,25.5,7.6,30.48,ESE,107,2.0,3.0,46,0.00,,,0.00,Wunderground v.1.15,2013-02-08 00:01:00,
2013-02-07 19:07:00,25.3,7.4,30.48,ESE,111,2.0,3.0,46,0.00,,,0.00,Wunderground v.1.15,2013-02-08 00:07:00,
2013-02-07 19:12:00,25.2,7.3,30.48,ESE,119,1.0,2.0,46,0.00,,,0.00,Wunderground v.1.15,2013-02-08 00:12:00,
2013-02-07 19:17:00,25.1,7.2,30.48,ESE,106,1.0,2.0,46,0.00,,,0.00,Wunderground v.1.15,2013-02-08 00:17:00,
2013-02-07 19:22:00,25.0,7.1,30.48,ESE,106,1.0,2.0,46,0.00,,,0.00,Wunderground v.1.15,2013-02-08 00:22:00,
2013-02-07 19:27:00,25.0,6.6,30.48,East,98,1.0,2.0,45,0.00,,,0.00,Wunderground v.1.15,2013-02-08 00:27:00,
2013-02-07 19:34:00,25.0,7.1,30.48,East,85,1.0,2.0,46,0.00,,,0.00,Wunderground v.1.15,2013-02-08 00:34:00,
2013-02-07 19:39:00,24.9,7.0,30.48,East,85,1.0,1.0,46,0.00,,,0.00,Wunderground v.1.15,2013-02-08 00:39:00,
2013-02-07 19:44:00,25.0,6.6,30.47,East,101,1.0,2.0,45,0.00,,,0.00,Wunderground v.1.15,2013-02-08 00:44:00,
2013-02-07 19:49:00,24.9,6.5,30.47,East,101,1.0,1.0,45,0.00,,,0.00,Wunderground v.1.15,2013-02-08 00:49:00,
2013-02-07 19:55:00,24.9,7.0,30.47,ESE,103,1.0,5.0,46,0.00,,,0.00,Wunderground v.1.15,2013-02-08 00:55:00,
2013-02-07 20:01:00,24.9,7.0,30.48,SE,134,1.0,2.0,46,0.00,,,0.00,Wunderground v.1.15,2013-02-08 01:01:00,
2013-02-07 20:07:00,24.9,7.0,30.48,South,175,1.0,3.0,46,0.00,,,0.00,Wunderground v.1.15,2013-02-08 01:07:00,
2013-02-07 20:12:00,24.9,7.5,30.47,ENE,63,1.0,1.0,47,0.00,,,0.00,Wunderground v.1.15,2013-02-08 01:12:00,
2013-02-07 20:17:00,24.8,7.4,30.47,East,93,1.0,2.0,47,0.00,,,0.00,Wunderground v.1.15,2013-02-08 01:17:00,
2013-02-07 20:24:00,24.8,6.9,30.47,ESE,121,1.0,2.0,46,0.00,,,0.00,Wunderground v.1.15,2013-02-08 01:24:00,
2013-02-07 20:29:00,24.8,6.9,30.47,ESE,117,1.0,2.0,46,0.00,,,0.00,Wunderground v.1.15,2013-02-08 01:29:00,
2013-02-07 20:35:00,24.7,6.3,30.47,East,94,2.0,4.0,45,0.00,,,0.00,Wunderground v.1.15,2013-02-08 01:35:00,
2013-02-07 20:40:00,24.7,7.3,30.48,ESE,109,2.0,3.0,47,0.00,,,0.00,Wunderground v.1.15,2013-02-08 01:40:00,
2013-02-07 20:46:00,24.7,6.8,30.47,East,90,2.0,3.0,46,0.00,,,0.00,Wunderground v.1.15,2013-02-08 01:46:00,
2013-02-07 20:51:00,24.6,6.7,30.48,East,82,2.0,2.0,46,0.00,,,0.00,Wunderground v.1.15,2013-02-08 01:51:00,
2013-02-07 20:57:00,24.6,7.2,30.48,ESE,112,1.0,2.0,47,0.00,,,0.00,Wunderground v.1.15,2013-02-08 01:57:00,
2013-02-07 21:02:00,24.5,7.1,30.48,East,89,1.0,2.0,47,0.00,,,0.00,Wunderground v.1.15,2013-02-08 02:02:00,
2013-02-07 21:09:00,24.5,7.1,30.48,ESE,105,2.0,2.0,47,0.00,,,0.00,Wunderground v.1.15,2013-02-08 02:09:00,
2013-02-07 21:14:00,24.4,7.5,30.48,ENE,72,1.0,2.0,48,0.00,,,0.00,Wunderground v.1.15,2013-02-08 02:14:00,
2013-02-07 21:19:00,24.4,7.5,30.48,ESE,102,1.0,1.0,48,0.00,,,0.00,Wunderground v.1.15,2013-02-08 02:19:00,
2013-02-07 21:25:00,24.4,7.9,30.48,ESE,102,1.0,2.0,49,0.00,,,0.00,Wunderground v.1.15,2013-02-08 02:25:00,
2013-02-07 21:30:00,24.3,7.4,30.48,East,86,2.0,2.0,48,0.00,,,0.00,Wunderground v.1.15,2013-02-08 02:30:00,
2013-02-07 21:36:00,24.3,7.9,30.48,SE,137,2.0,4.0,49,0.00,,,0.00,Wunderground v.1.15,2013-02-08 02:36:00,
2013-02-07 21:42:00,24.2,8.2,30.48,East,90,2.0,2.0,50,0.00,,,0.00,Wunderground v.1.15,2013-02-08 02:42:00,
2013-02-07 21:49:00,24.1,8.1,30.47,East,89,2.0,2.0,50,0.00,,,0.00,Wunderground v.1.15,2013-02-08 02:49:00,
2013-02-07 21:55:00,24.1,9.0,30.47,ENE,70,2.0,2.0,52,0.00,,,0.00,Wunderground v.1.15,2013-02-08 02:55:00,
2013-02-07 22:00:00,24.1,9.0,30.47,SE,126,2.0,3.0,52,0.00,,,0.00,Wunderground v.1.15,2013-02-08 03:00:00,
2013-02-07 22:05:00,24.1,9.0,30.47,East,101,2.0,3.0,52,0.00,,,0.00,Wunderground v.1.15,2013-02-08 03:05:00,
2013-02-07 22:11:00,24.1,9.4,30.47,SE,133,1.0,3.0,53,0.00,,,0.00,Wunderground v.1.15,2013-02-08 03:11:00,
2013-02-07 22:16:00,24.0,9.7,30.47,SE,134,2.0,4.0,54,0.00,,,0.00,Wunderground v.1.15,2013-02-08 03:16:00,
2013-02-07 22:21:00,24.0,10.2,30.47,SE,136,2.0,3.0,55,0.00,,,0.00,Wunderground v.1.15,2013-02-08 03:21:00,
2013-02-07 22:26:00,24.0,10.6,30.47,East,95,1.0,3.0,56,0.00,,,0.00,Wunderground v.1.15,2013-02-08 03:26:00,
2013-02-07 22:32:00,24.0,10.6,30.47,ESE,115,1.0,1.0,56,0.00,,,0.00,Wunderground v.1.15,2013-02-08 03:32:00,
2013-02-07 22:37:00,24.0,10.6,30.47,ESE,119,1.0,4.0,56,0.00,,,0.00,Wunderground v.1.15,2013-02-08 03:37:00,
2013-02-07 22:44:00,24.0,10.6,30.47,ESE,106,1.0,2.0,56,0.00,,,0.00,Wunderground v.1.15,2013-02-08 03:44:00,
2013-02-07 22:49:00,24.0,11.0,30.47,ESE,105,1.0,1.0,57,0.00,,,0.00,Wunderground v.1.15,2013-02-08 03:49:00,
2013-02-07 22:55:00,24.0,11.3,30.47,SSE,148,1.0,1.0,58,0.00,,,0.00,Wunderground v.1.15,2013-02-08 03:55:00,
2013-02-07 23:00:00,24.0,11.3,30.47,SSE,148,1.0,1.0,58,0.00,,,0.00,Wunderground v.1.15,2013-02-08 04:00:00,
2013-02-07 23:05:00,24.0,11.3,30.47,SSE,153,1.0,1.0,58,0.00,,,0.00,Wunderground v.1.15,2013-02-08 04:05:00,
2013-02-07 23:12:00,23.9,11.6,30.47,SSE,153,1.0,1.0,59,0.00,,,0.00,Wunderground v.1.15,2013-02-08 04:12:00,
2013-02-07 23:17:00,23.8,11.5,30.47,SSE,153,0.0,1.0,59,0.00,,,0.00,Wunderground v.1.15,2013-02-08 04:17:00,
2013-02-07 23:24:00,23.5,11.3,30.47,SSE,157,0.0,1.0,59,0.00,,,0.00,Wunderground v.1.15,2013-02-08 04:24:00,
2013-02-07 23:29:00,23.4,11.5,30.47,SSE,157,0.0,0.0,60,0.00,,,0.00,Wunderground v.1.15,2013-02-08 04:29:00,
2013-02-07 23:35:00,23.3,11.4,30.47,SSE,158,0.0,0.0,60,0.00,,,0.00,Wunderground v.1.15,2013-02-08 04:35:00,
2013-02-07 23:40:00,23.1,11.6,30.47,SSE,158,0.0,0.0,61,0.00,,,0.00,Wunderground v.1.15,2013-02-08 04:40:00,
2013-02-07 23:45:00,23.0,11.5,30.46,SSE,158,0.0,0.0,61,0.00,,,0.00,Wunderground v.1.15,2013-02-08 04:45:00,
2013-02-07 23:50:00,22.9,11.8,30.46,SSE,157,0.0,0.0,62,0.00,,,0.00,Wunderground v.1.15,2013-02-08 04:50:00,
2013-02-07 23:55:00,22.9,12.2,30.46,SSE,158,0.0,0.0,63,0.00,,,0.00,Wunderground v.1.15,2013-02-08 04:55:00,